createdAt,value
2023-04-01T00:02:09.832Z,7.88
2023-04-01T00:04:57.356Z,7.88
2023-04-01T00:07:44.678Z,7.87
2023-04-01T00:10:31.830Z,7.81
2023-04-01T00:13:19.417Z,7.83
2023-04-01T00:16:19.869Z,7.75
2023-04-01T00:19:08.541Z,7.72
2023-04-01T00:21:55.629Z,7.61
2023-04-01T00:24:42.666Z,7.67
2023-04-01T00:27:29.906Z,7.73
2023-04-01T00:30:18.096Z,7.77
2023-04-01T00:33:05.340Z,7.59
2023-04-01T00:35:52.514Z,7.58
2023-04-01T00:38:39.803Z,7.70
2023-04-01T00:41:27.271Z,7.78
2023-04-01T00:44:35.581Z,7.65
2023-04-01T00:47:25.414Z,7.62
2023-04-01T00:50:12.492Z,7.41
2023-04-01T00:53:01.271Z,7.52
2023-04-01T00:55:59.593Z,7.68
2023-04-01T00:58:50.498Z,7.76
2023-04-01T01:01:38.643Z,7.59
2023-04-01T01:04:29.167Z,7.56
2023-04-01T01:07:28.353Z,7.78
2023-04-01T01:10:24.950Z,7.96
2023-04-01T01:13:31.071Z,7.89
2023-04-01T01:16:26.926Z,7.87
2023-04-01T01:19:32.566Z,7.78
2023-04-01T01:22:44.181Z,7.84
2023-04-01T01:25:41.930Z,7.78
2023-04-01T01:28:44.234Z,7.80
2023-04-01T01:31:51.497Z,7.67
2023-04-01T01:34:59.351Z,7.78
2023-04-01T01:37:48.348Z,7.80
2023-04-01T01:40:37.803Z,7.74
2023-04-01T01:43:33.335Z,7.80
2023-04-01T01:46:23.933Z,7.75
2023-04-01T01:49:14.048Z,7.83
2023-04-01T01:52:01.046Z,7.84
2023-04-01T01:54:53.432Z,7.82
2023-04-01T01:57:40.993Z,7.56
2023-04-01T02:00:29.229Z,7.68
2023-04-01T02:03:18.105Z,7.56
2023-04-01T02:06:09.593Z,7.38
2023-04-01T02:09:08.033Z,7.51
2023-04-01T02:12:02.396Z,7.51
2023-04-01T02:14:49.553Z,7.49
2023-04-01T02:17:41.218Z,7.44
2023-04-01T02:20:30.876Z,7.44
2023-04-01T02:23:17.995Z,7.50
2023-04-01T02:26:09.009Z,7.57
2023-04-01T02:28:57.577Z,7.52
2023-04-01T02:31:44.915Z,7.50
2023-04-01T02:34:32.285Z,7.41
2023-04-01T02:37:19.571Z,7.54
2023-04-01T02:40:08.702Z,7.39
2023-04-01T02:42:55.796Z,7.46
2023-04-01T02:45:43.723Z,7.33
2023-04-01T02:48:31.428Z,7.31
2023-04-01T02:51:18.640Z,7.19
2023-04-01T02:54:05.746Z,7.45
2023-04-01T02:56:53.003Z,7.35
2023-04-01T02:59:40.060Z,7.22
2023-04-01T03:02:27.999Z,7.21
2023-04-01T03:05:15.627Z,7.23
2023-04-01T03:08:03.910Z,7.08
2023-04-01T03:10:51.070Z,7.27
2023-04-01T03:13:38.475Z,7.28
2023-04-01T03:16:25.685Z,7.35
2023-04-01T03:19:12.804Z,7.47
2023-04-01T03:21:59.854Z,7.35
2023-04-01T03:24:46.918Z,7.49
2023-04-01T03:27:34.392Z,7.40
2023-04-01T03:30:21.547Z,7.51
2023-04-01T03:33:08.924Z,7.50
2023-04-01T03:35:56.204Z,7.36
2023-04-01T03:38:43.868Z,7.38
2023-04-01T03:41:31.869Z,7.43
2023-04-01T03:44:18.916Z,7.30
2023-04-01T03:47:06.108Z,7.36
2023-04-01T03:49:53.299Z,7.53
2023-04-01T03:52:40.507Z,7.46
2023-04-01T03:55:27.561Z,7.32
2023-04-01T03:58:14.925Z,7.50
2023-04-01T04:01:02.011Z,7.42
2023-04-01T04:03:50.856Z,7.35
2023-04-01T04:06:38.019Z,7.22
2023-04-01T04:09:25.158Z,7.33
2023-04-01T04:12:12.435Z,7.32
2023-04-01T04:14:59.585Z,7.21
2023-04-01T04:17:47.257Z,7.15
2023-04-01T04:20:34.418Z,7.16
2023-04-01T04:23:22.040Z,7.17
2023-04-01T04:26:12.674Z,7.31
2023-04-01T04:29:00.278Z,7.19
2023-04-01T04:31:47.491Z,7.31
2023-04-01T04:34:34.528Z,7.23
2023-04-01T04:37:21.643Z,7.35
2023-04-01T04:40:09.492Z,7.36
2023-04-01T04:42:56.571Z,7.39
2023-04-01T04:45:43.781Z,7.39
2023-04-01T04:48:30.988Z,7.34
2023-04-01T04:51:19.768Z,7.34
2023-04-01T04:54:07.844Z,7.35
2023-04-01T04:56:55.085Z,7.27
2023-04-01T04:59:42.156Z,7.38
2023-04-01T05:02:29.744Z,7.26
2023-04-01T05:05:16.859Z,7.32
2023-04-01T05:08:04.754Z,7.35
2023-04-01T05:10:51.805Z,7.30
2023-04-01T05:13:38.885Z,7.26
2023-04-01T05:16:26.026Z,7.35
2023-04-01T05:19:13.197Z,7.42
2023-04-01T05:22:00.528Z,7.51
2023-04-01T05:24:47.771Z,7.44
2023-04-01T05:27:34.898Z,7.45
2023-04-01T05:30:22.544Z,7.53
2023-04-01T05:33:11.283Z,7.57
2023-04-01T05:36:06.461Z,7.51
2023-04-01T05:38:56.574Z,7.67
2023-04-01T05:41:43.531Z,7.73
2023-04-01T05:44:30.867Z,7.47
2023-04-01T05:47:18.919Z,7.64
2023-04-01T05:50:06.430Z,7.69
2023-04-01T05:52:54.054Z,7.58
2023-04-01T05:55:41.114Z,7.85
2023-04-01T05:58:28.251Z,7.77
2023-04-01T06:01:16.479Z,7.81
2023-04-01T06:04:04.147Z,7.89
2023-04-01T06:06:52.855Z,7.90
2023-04-01T06:09:40.207Z,7.98
2023-04-01T06:12:45.866Z,7.97
2023-04-01T06:15:44.442Z,7.87
2023-04-01T06:19:00.366Z,7.97
2023-04-01T06:21:47.411Z,8.29
2023-04-01T06:25:28.806Z,8.26
2023-04-01T06:28:36.879Z,8.41
2023-04-01T06:31:43.763Z,8.46
2023-04-01T06:34:49.383Z,8.68
2023-04-01T06:38:00.813Z,8.74
2023-04-01T06:41:23.037Z,8.57
2023-04-01T06:44:39.626Z,8.71
2023-04-01T06:47:32.431Z,8.88
2023-04-01T06:50:56.329Z,9.16
2023-04-01T06:54:09.666Z,9.32
2023-04-01T06:57:21.999Z,9.39
2023-04-01T07:00:30.764Z,9.65
2023-04-01T07:03:21.897Z,10.15
2023-04-01T07:06:29.885Z,10.37
2023-04-01T07:09:28.990Z,10.97
2023-04-01T07:12:37.372Z,10.90
2023-04-01T07:15:37.567Z,10.78
2023-04-01T07:18:38.906Z,10.86
2023-04-01T07:21:46.750Z,10.87
2023-04-01T07:24:43.630Z,10.77
2023-04-01T07:27:31.082Z,10.97
2023-04-01T07:30:23.398Z,11.06
2023-04-01T07:33:21.301Z,11.22
2023-04-01T07:36:30.506Z,11.38
2023-04-01T07:39:41.924Z,11.67
2023-04-01T07:42:49.759Z,12.20
2023-04-01T07:45:55.268Z,12.78
2023-04-01T07:48:54.856Z,12.43
2023-04-01T07:51:59.869Z,12.48
2023-04-01T07:55:07.546Z,12.17
2023-04-01T07:58:02.932Z,11.99
2023-04-01T08:01:07.386Z,12.01
2023-04-01T08:04:06.665Z,10.98
2023-04-01T08:06:56.687Z,10.94
2023-04-01T08:10:10.833Z,10.61
2023-04-01T08:13:17.853Z,10.87
2023-04-01T08:16:21.032Z,11.05
2023-04-01T08:19:23.250Z,11.53
2023-04-01T08:22:22.938Z,11.63
2023-04-01T08:25:19.324Z,11.70
2023-04-01T08:28:40.738Z,12.36
2023-04-01T08:31:42.048Z,12.55
2023-04-01T08:34:35.438Z,12.95
2023-04-01T08:37:30.004Z,12.47
2023-04-01T08:40:47.870Z,12.37
2023-04-01T08:43:53.338Z,11.83
2023-04-01T08:47:05.092Z,12.28
2023-04-01T08:49:58.437Z,12.98
2023-04-01T08:52:53.713Z,13.25
2023-04-01T08:56:07.572Z,13.38
2023-04-01T08:59:09.457Z,13.33
2023-04-01T09:02:14.383Z,13.56
2023-04-01T09:05:46.762Z,13.23
2023-04-01T09:09:11.052Z,13.43
2023-04-01T09:12:37.195Z,12.51
2023-04-01T09:15:58.756Z,12.69
2023-04-01T09:19:04.162Z,12.63
2023-04-01T09:22:16.145Z,12.81
2023-04-01T09:25:13.754Z,12.19
2023-04-01T09:28:29.214Z,12.61
2023-04-01T09:31:25.402Z,12.23
2023-04-01T09:34:37.182Z,12.03
2023-04-01T09:37:33.252Z,12.40
2023-04-01T09:40:52.984Z,12.11
2023-04-01T09:43:54.928Z,12.43
2023-04-01T09:46:59.973Z,12.67
2023-04-01T09:50:16.491Z,12.83
2023-04-01T09:53:17.645Z,12.94
2023-04-01T09:56:26.622Z,12.77
2023-04-01T09:59:37.453Z,12.51
2023-04-01T10:02:36.844Z,12.66
2023-04-01T10:05:54.876Z,12.59
2023-04-01T10:09:28.030Z,12.66
2023-04-01T10:12:55.400Z,12.55
2023-04-01T10:16:33.438Z,12.29
2023-04-01T10:19:26.804Z,12.60
2023-04-01T10:22:34.712Z,13.21
2023-04-01T10:25:58.643Z,13.41
2023-04-01T10:29:10.285Z,13.62
2023-04-01T10:32:09.638Z,13.50
2023-04-01T10:35:28.143Z,13.12
2023-04-01T10:38:33.667Z,12.99
2023-04-01T10:41:30.697Z,12.76
2023-04-01T10:44:30.506Z,12.86
2023-04-01T10:47:55.277Z,12.87
2023-04-01T10:50:51.090Z,12.84
2023-04-01T10:53:57.066Z,12.78
2023-04-01T10:57:01.162Z,12.88
2023-04-01T11:00:09.913Z,12.96
2023-04-01T11:03:27.904Z,13.47
2023-04-01T11:06:33.335Z,13.35
2023-04-01T11:09:59.403Z,13.42
2023-04-01T11:13:40.367Z,14.23
2023-04-01T11:16:42.487Z,14.38
2023-04-01T11:20:02.060Z,14.02
2023-04-01T11:23:01.338Z,13.97
2023-04-01T11:26:20.953Z,13.66
2023-04-01T11:29:56.605Z,13.21
2023-04-01T11:33:04.895Z,12.94
2023-04-01T11:36:09.032Z,13.56
2023-04-01T11:39:10.904Z,13.92
2023-04-01T11:42:00.562Z,14.32
2023-04-01T11:44:57.920Z,14.21
2023-04-01T11:48:03.840Z,14.13
2023-04-01T11:51:12.768Z,14.09
2023-04-01T11:54:02.699Z,14.36
2023-04-01T11:56:56.979Z,14.49
2023-04-01T12:00:46.101Z,15.26
2023-04-01T12:04:12.179Z,15.65
2023-04-01T12:07:12.599Z,15.61
2023-04-01T12:10:25.949Z,15.71
2023-04-01T12:13:36.973Z,15.82
2023-04-01T12:16:43.168Z,16.26
2023-04-01T12:19:36.469Z,16.55
2023-04-01T12:22:47.891Z,16.52
2023-04-01T12:25:45.202Z,15.82
2023-04-01T12:28:38.260Z,15.18
2023-04-01T12:31:54.646Z,15.72
2023-04-01T12:35:23.294Z,15.83
2023-04-01T12:38:37.978Z,16.17
2023-04-01T12:41:41.751Z,15.86
2023-04-01T12:44:50.677Z,15.94
2023-04-01T12:47:44.096Z,16.24
2023-04-01T12:50:43.381Z,16.46
2023-04-01T12:53:53.616Z,16.19
2023-04-01T12:57:07.936Z,15.95
2023-04-01T13:00:14.050Z,16.30
2023-04-01T13:03:40.176Z,15.98
2023-04-01T13:06:45.922Z,15.36
2023-04-01T13:10:05.265Z,14.63
2023-04-01T13:12:58.558Z,15.04
2023-04-01T13:15:52.022Z,14.91
2023-04-01T13:19:03.720Z,14.38
2023-04-01T13:22:05.914Z,14.65
2023-04-01T13:25:00.221Z,14.68
2023-04-01T13:28:01.442Z,14.61
2023-04-01T13:30:56.867Z,14.51
2023-04-01T13:34:07.692Z,14.19
2023-04-01T13:37:20.630Z,14.11
2023-04-01T13:40:32.836Z,14.35
2023-04-01T13:43:32.839Z,14.04
2023-04-01T13:46:38.321Z,14.45
2023-04-01T13:49:28.103Z,14.23
2023-04-01T13:52:35.531Z,13.98
2023-04-01T13:55:47.684Z,13.51
2023-04-01T13:59:12.629Z,13.28
2023-04-01T14:02:18.944Z,12.53
2023-04-01T14:05:43.210Z,12.47
2023-04-01T14:08:45.670Z,12.56
2023-04-01T14:11:43.669Z,13.23
2023-04-01T14:14:49.550Z,14.16
2023-04-01T14:17:45.756Z,14.06
2023-04-01T14:21:04.259Z,13.99
2023-04-01T14:24:23.216Z,13.65
2023-04-01T14:27:52.673Z,13.81
2023-04-01T14:31:06.938Z,14.20
2023-04-01T14:34:26.439Z,14.06
2023-04-01T14:37:50.651Z,15.27
2023-04-01T14:40:56.534Z,15.79
2023-04-01T14:44:20.908Z,15.64
2023-04-01T14:47:35.803Z,15.69
2023-04-01T14:50:26.271Z,16.30
2023-04-01T14:53:27.417Z,16.31
2023-04-01T14:56:35.860Z,16.37
2023-04-01T14:59:22.923Z,16.71
2023-04-01T15:02:45.451Z,16.00
2023-04-01T15:05:53.018Z,16.31
2023-04-01T15:08:55.597Z,16.04
2023-04-01T15:12:15.215Z,16.51
2023-04-01T15:15:17.317Z,15.73
2023-04-01T15:18:18.538Z,15.65
2023-04-01T15:21:19.590Z,15.06
2023-04-01T15:24:22.806Z,14.39
2023-04-01T15:27:45.582Z,13.85
2023-04-01T15:30:47.261Z,13.70
2023-04-01T15:33:52.305Z,12.87
2023-04-01T15:36:52.553Z,12.20
2023-04-01T15:39:39.871Z,12.63
2023-04-01T15:42:29.962Z,12.56
2023-04-01T15:45:55.592Z,12.17
2023-04-01T15:48:52.280Z,12.18
2023-04-01T15:51:49.866Z,12.09
2023-04-01T15:55:07.959Z,12.02
2023-04-01T15:58:25.253Z,11.45
2023-04-01T16:01:35.742Z,11.43
2023-04-01T16:04:37.981Z,11.59
2023-04-01T16:08:02.698Z,11.37
2023-04-01T16:11:08.514Z,11.35
2023-04-01T16:14:04.852Z,11.33
2023-04-01T16:17:09.029Z,11.32
2023-04-01T16:20:04.966Z,11.36
2023-04-01T16:23:01.459Z,11.19
2023-04-01T16:26:06.965Z,11.29
2023-04-01T16:29:10.215Z,11.25
2023-04-01T16:32:09.337Z,10.80
2023-04-01T16:35:15.169Z,10.73
2023-04-01T16:38:11.488Z,9.98
2023-04-01T16:41:11.493Z,9.87
2023-04-01T16:44:11.458Z,10.30
2023-04-01T16:47:12.373Z,10.07
2023-04-01T16:50:32.750Z,10.15
2023-04-01T16:53:38.574Z,10.27
2023-04-01T16:56:31.302Z,10.00
2023-04-01T16:59:31.468Z,9.84
2023-04-01T17:02:26.312Z,9.64
2023-04-01T17:05:14.764Z,9.43
2023-04-01T17:08:32.330Z,9.50
2023-04-01T17:11:26.115Z,9.68
2023-04-01T17:14:31.006Z,9.48
2023-04-01T17:17:33.252Z,9.59
2023-04-01T17:20:38.795Z,9.53
2023-04-01T17:23:34.418Z,9.47
2023-04-01T17:26:34.361Z,9.54
2023-04-01T17:29:54.212Z,9.46
2023-04-01T17:32:47.688Z,9.56
2023-04-01T17:35:44.798Z,9.61
2023-04-01T17:39:11.542Z,9.73
2023-04-01T17:42:16.556Z,9.64
2023-04-01T17:45:17.979Z,9.51
2023-04-01T17:48:18.020Z,9.51
2023-04-01T17:51:25.117Z,9.57
2023-04-01T17:54:42.194Z,9.60
2023-04-01T17:57:47.889Z,9.31
2023-04-01T18:01:00.392Z,9.05
2023-04-01T18:04:27.560Z,9.18
2023-04-01T18:07:34.121Z,8.96
2023-04-01T18:10:51.982Z,9.13
2023-04-01T18:14:06.746Z,9.09
2023-04-01T18:17:21.349Z,9.05
2023-04-01T18:20:57.214Z,9.04
2023-04-01T18:24:02.925Z,8.64
2023-04-01T18:27:15.171Z,8.83
2023-04-01T18:30:18.838Z,8.56
2023-04-01T18:33:19.281Z,8.62
2023-04-01T18:36:19.581Z,8.77
2023-04-01T18:39:17.145Z,8.77
2023-04-01T18:42:40.872Z,8.80
2023-04-01T18:45:33.314Z,8.49
2023-04-01T18:48:39.940Z,8.64
2023-04-01T18:51:46.378Z,8.70
2023-04-01T18:54:42.583Z,8.70
2023-04-01T18:58:01.102Z,8.75
2023-04-01T19:01:13.940Z,8.78
2023-04-01T19:04:28.705Z,8.71
2023-04-01T19:07:26.813Z,8.77
2023-04-01T19:10:14.791Z,8.67
2023-04-01T19:13:35.097Z,8.59
2023-04-01T19:16:53.275Z,8.47
2023-04-01T19:20:04.315Z,8.68
2023-04-01T19:23:39.215Z,8.65
2023-04-01T19:26:41.398Z,8.47
2023-04-01T19:29:58.626Z,8.54
2023-04-01T19:32:54.424Z,8.48
2023-04-01T19:35:54.321Z,8.56
2023-04-01T19:38:54.064Z,8.59
2023-04-01T19:42:00.814Z,8.48
2023-04-01T19:45:23.967Z,8.60
2023-04-01T19:48:40.964Z,8.38
2023-04-01T19:51:53.409Z,8.62
2023-04-01T19:55:21.494Z,8.44
2023-04-01T19:58:34.608Z,8.41
2023-04-01T20:01:44.215Z,8.45
2023-04-01T20:04:37.968Z,8.59
2023-04-01T20:07:32.466Z,8.60
2023-04-01T20:10:47.417Z,8.54
2023-04-01T20:14:05.092Z,8.74
2023-04-01T20:17:05.542Z,8.61
2023-04-01T20:19:59.422Z,8.58
2023-04-01T20:22:46.956Z,8.65
2023-04-01T20:25:45.835Z,8.58
2023-04-01T20:28:47.653Z,8.67
2023-04-01T20:31:42.236Z,8.62
2023-04-01T20:34:42.400Z,8.73
2023-04-01T20:37:52.329Z,8.63
2023-04-01T20:40:52.905Z,8.56
2023-04-01T20:43:56.773Z,8.67
2023-04-01T20:46:55.331Z,8.62
2023-04-01T20:49:42.497Z,8.60
2023-04-01T20:52:43.679Z,8.66
2023-04-01T20:56:14.193Z,8.43
2023-04-01T20:59:24.949Z,8.59
2023-04-01T21:02:30.267Z,8.49
2023-04-01T21:05:36.725Z,8.53
2023-04-01T21:08:53.211Z,8.45
2023-04-01T21:12:11.870Z,8.38
2023-04-01T21:15:20.372Z,8.38
2023-04-01T21:18:33.623Z,8.28
2023-04-01T21:21:32.859Z,8.31
2023-04-01T21:24:35.418Z,8.32
2023-04-01T21:27:32.038Z,8.30
2023-04-01T21:30:41.578Z,8.29
2023-04-01T21:33:46.178Z,8.11
2023-04-01T21:37:00.506Z,8.24
2023-04-01T21:40:12.630Z,8.14
2023-04-01T21:43:05.835Z,8.25
2023-04-01T21:46:11.820Z,8.21
2023-04-01T21:49:36.636Z,8.12
2023-04-01T21:52:55.178Z,8.13
2023-04-01T21:56:06.690Z,8.20
2023-04-01T21:59:06.749Z,8.11
2023-04-01T22:02:12.469Z,7.96
2023-04-01T22:05:12.124Z,8.02
2023-04-01T22:08:14.450Z,8.03
2023-04-01T22:11:13.689Z,8.01
2023-04-01T22:14:32.677Z,7.82
2023-04-01T22:17:34.070Z,7.81
2023-04-01T22:21:06.402Z,7.94
2023-04-01T22:24:07.897Z,8.05
2023-04-01T22:27:26.125Z,8.05
2023-04-01T22:30:31.949Z,8.04
2023-04-01T22:33:34.184Z,8.06
2023-04-01T22:36:39.408Z,8.07
2023-04-01T22:39:35.686Z,8.04
2023-04-01T22:42:43.268Z,7.94
2023-04-01T22:45:44.448Z,8.05
2023-04-01T22:49:10.674Z,8.02
2023-04-01T22:52:15.236Z,7.98
2023-04-01T22:55:13.103Z,8.01
2023-04-01T22:58:34.025Z,7.67
2023-04-01T23:03:40.518Z,7.80
2023-04-01T23:06:42.407Z,7.87
2023-04-01T23:09:38.628Z,7.90
2023-04-01T23:12:28.162Z,7.95
2023-04-01T23:15:17.220Z,8.02
2023-04-01T23:18:13.909Z,7.98
2023-04-01T23:21:19.578Z,8.09
2023-04-01T23:24:37.408Z,8.06
2023-04-01T23:28:14.288Z,8.03
2023-04-01T23:31:01.562Z,7.87
2023-04-01T23:33:55.939Z,7.98
2023-04-01T23:36:45.591Z,8.03
2023-04-01T23:39:42.377Z,7.96
2023-04-01T23:42:39.623Z,7.97
2023-04-01T23:45:26.882Z,8.05
2023-04-01T23:48:17.443Z,8.10
2023-04-01T23:51:12.225Z,8.04
2023-04-01T23:54:15.255Z,7.96
2023-04-01T23:57:11.942Z,8.07
